createdAt,value
2023-04-28T00:02:46.183Z,6.25
2023-04-28T00:05:33.555Z,5.80
2023-04-28T00:08:28.914Z,5.43
2023-04-28T00:11:16.327Z,6.43
2023-04-28T00:14:09.889Z,6.07
2023-04-28T00:16:59.287Z,5.78
2023-04-28T00:19:52.909Z,4.63
2023-04-28T00:22:46.986Z,5.65
2023-04-28T00:25:34.005Z,5.00
2023-04-28T00:28:34.151Z,5.32
2023-04-28T00:31:21.702Z,5.70
2023-04-28T00:34:16.237Z,5.50
2023-04-28T00:37:04.486Z,4.80
2023-04-28T00:40:03.925Z,5.72
2023-04-28T00:42:57.909Z,4.68
2023-04-28T00:45:52.022Z,4.65
2023-04-28T00:48:45.966Z,4.88
2023-04-28T00:51:39.955Z,6.18
2023-04-28T00:54:33.933Z,5.82
2023-04-28T00:57:21.212Z,6.65
2023-04-28T01:00:15.950Z,5.63
2023-04-28T01:03:10.080Z,5.72
2023-04-28T01:06:03.980Z,7.55
2023-04-28T01:08:58.007Z,6.47
2023-04-28T01:11:45.301Z,5.53
2023-04-28T01:14:40.008Z,6.60
2023-04-28T01:17:33.979Z,5.10
2023-04-28T01:20:27.961Z,5.13
2023-04-28T01:23:23.125Z,6.30
2023-04-28T01:26:16.987Z,6.43
2023-04-28T01:29:11.077Z,6.80
2023-04-28T01:32:12.030Z,5.57
2023-04-28T01:34:59.103Z,5.47
2023-04-28T01:37:53.017Z,6.47
2023-04-28T01:40:40.087Z,5.50
2023-04-28T01:43:34.033Z,6.25
2023-04-28T01:46:21.225Z,5.57
2023-04-28T01:49:15.083Z,5.28
2023-04-28T01:52:02.140Z,5.88
2023-04-28T01:54:56.035Z,7.95
2023-04-28T01:57:50.104Z,5.78
2023-04-28T02:00:50.054Z,6.70
2023-04-28T02:03:37.328Z,5.82
2023-04-28T02:06:31.054Z,4.93
2023-04-28T02:09:18.111Z,5.13
2023-04-28T02:12:12.057Z,5.00
2023-04-28T02:14:59.188Z,5.07
2023-04-28T02:17:53.127Z,5.70
2023-04-28T02:20:40.906Z,7.68
2023-04-28T02:23:34.073Z,8.75
2023-04-28T02:26:21.149Z,5.85
2023-04-28T02:29:15.116Z,6.05
2023-04-28T02:32:02.211Z,4.70
2023-04-28T02:35:01.095Z,4.88
2023-04-28T02:37:48.204Z,4.07
2023-04-28T02:40:42.161Z,5.22
2023-04-28T02:43:36.143Z,5.40
2023-04-28T02:46:23.324Z,4.05
2023-04-28T02:49:17.139Z,5.45
2023-04-28T02:52:04.450Z,4.82
2023-04-28T02:55:01.154Z,4.45
2023-04-28T02:57:55.246Z,5.07
2023-04-28T03:00:42.357Z,6.25
2023-04-28T03:03:36.400Z,4.30
2023-04-28T03:06:23.630Z,4.82
2023-04-28T03:09:18.221Z,3.38
2023-04-28T03:12:05.489Z,4.70
2023-04-28T03:14:59.222Z,5.40
2023-04-28T03:17:46.495Z,5.75
2023-04-28T03:20:40.559Z,6.63
2023-04-28T03:23:34.322Z,5.63
2023-04-28T03:26:28.202Z,7.22
2023-04-28T03:29:22.162Z,5.70
2023-04-28T03:32:09.402Z,6.72
2023-04-28T03:35:03.188Z,5.45
2023-04-28T03:37:57.214Z,4.75
2023-04-28T03:40:44.460Z,4.28
2023-04-28T03:43:39.235Z,4.57
2023-04-28T03:46:33.209Z,6.68
2023-04-28T03:49:27.224Z,4.68
2023-04-28T03:52:14.388Z,5.15
2023-04-28T03:55:08.209Z,5.85
2023-04-28T03:58:02.251Z,5.43
2023-04-28T04:00:56.232Z,4.30
2023-04-28T04:03:43.518Z,5.95
2023-04-28T04:06:38.245Z,5.20
2023-04-28T04:09:25.647Z,4.88
2023-04-28T04:12:19.246Z,4.68
2023-04-28T04:15:07.078Z,5.93
2023-04-28T04:18:01.305Z,5.28
2023-04-28T04:20:49.831Z,5.15
2023-04-28T04:23:43.287Z,5.65
2023-04-28T04:26:30.546Z,5.22
2023-04-28T04:29:24.251Z,7.43
2023-04-28T04:32:11.303Z,5.75
2023-04-28T04:35:05.304Z,5.50
2023-04-28T04:37:59.328Z,5.53
2023-04-28T04:40:53.318Z,5.40
2023-04-28T04:43:47.289Z,4.32
2023-04-28T04:46:34.462Z,6.35
2023-04-28T04:49:28.350Z,5.28
2023-04-28T04:52:15.463Z,5.07
2023-04-28T04:55:09.388Z,6.10
2023-04-28T04:57:56.590Z,6.90
2023-04-28T05:00:50.363Z,6.53
2023-04-28T05:03:44.515Z,7.78
2023-04-28T05:06:31.942Z,5.53
2023-04-28T05:09:25.381Z,5.55
2023-04-28T05:12:12.703Z,5.75
2023-04-28T05:15:06.367Z,6.93
2023-04-28T05:17:53.942Z,5.25
2023-04-28T05:20:47.367Z,5.40
2023-04-28T05:23:41.404Z,6.18
2023-04-28T05:26:35.334Z,4.80
2023-04-28T05:29:29.385Z,5.60
2023-04-28T05:32:16.821Z,6.45
2023-04-28T05:35:10.402Z,8.02
2023-04-28T05:38:04.355Z,6.03
2023-04-28T05:40:51.453Z,9.35
2023-04-28T05:43:45.405Z,6.07
2023-04-28T05:46:32.565Z,6.45
2023-04-28T05:49:26.424Z,6.78
2023-04-28T05:52:20.404Z,7.07
2023-04-28T05:55:14.422Z,6.18
2023-04-28T05:58:01.811Z,8.48
2023-04-28T06:00:55.483Z,8.65
2023-04-28T06:03:49.632Z,5.95
2023-04-28T06:06:37.045Z,6.90
2023-04-28T06:09:30.468Z,8.27
2023-04-28T06:12:24.663Z,9.07
2023-04-28T06:15:18.476Z,8.65
2023-04-28T06:18:09.738Z,12.18
2023-04-28T06:21:03.458Z,12.02
2023-04-28T06:23:51.032Z,12.77
2023-04-28T06:26:44.480Z,8.25
2023-04-28T06:29:38.532Z,11.88
2023-04-28T06:32:25.796Z,11.48
2023-04-28T06:35:19.570Z,14.18
2023-04-28T06:38:07.170Z,11.63
2023-04-28T06:41:00.518Z,10.25
2023-04-28T06:43:47.544Z,13.48
2023-04-28T06:46:41.597Z,9.45
2023-04-28T06:49:28.788Z,10.25
2023-04-28T06:52:27.213Z,10.77
2023-04-28T06:55:24.555Z,14.10
2023-04-28T06:58:18.509Z,12.68
2023-04-28T07:01:12.535Z,12.60
2023-04-28T07:04:06.798Z,10.23
2023-04-28T07:06:54.231Z,9.63
2023-04-28T07:09:47.573Z,10.38
2023-04-28T07:12:41.560Z,9.10
2023-04-28T07:15:35.539Z,13.77
2023-04-28T07:18:29.966Z,10.73
2023-04-28T07:21:23.587Z,10.73
2023-04-28T07:24:10.728Z,9.05
2023-04-28T07:27:04.561Z,8.88
2023-04-28T07:29:58.556Z,10.90
2023-04-28T07:32:52.711Z,10.70
2023-04-28T07:35:39.947Z,10.50
2023-04-28T07:38:33.697Z,9.55
2023-04-28T07:41:20.823Z,10.73
2023-04-28T07:44:17.659Z,10.68
2023-04-28T07:47:05.125Z,12.07
2023-04-28T07:50:07.568Z,10.00
2023-04-28T07:52:54.653Z,8.73
2023-04-28T07:55:52.649Z,10.60
2023-04-28T07:58:39.925Z,12.48
2023-04-28T08:01:33.650Z,13.65
2023-04-28T08:04:21.156Z,12.43
2023-04-28T08:07:15.622Z,14.13
2023-04-28T08:10:10.637Z,10.95
2023-04-28T08:13:04.639Z,13.43
2023-04-28T08:15:51.828Z,13.73
2023-04-28T08:18:46.703Z,13.57
2023-04-28T08:21:34.270Z,17.48
2023-04-28T08:24:27.726Z,11.52
2023-04-28T08:27:14.970Z,17.05
2023-04-28T08:30:08.636Z,13.40
2023-04-28T08:32:56.160Z,14.13
2023-04-28T08:35:49.662Z,14.52
2023-04-28T08:38:36.809Z,16.15
2023-04-28T08:41:32.685Z,12.93
2023-04-28T08:44:26.715Z,13.95
2023-04-28T08:47:14.917Z,17.23
2023-04-28T08:50:13.750Z,14.57
2023-04-28T08:53:04.414Z,15.60
2023-04-28T08:56:04.694Z,14.85
2023-04-28T08:58:59.709Z,16.65
2023-04-28T09:01:55.760Z,14.05
2023-04-28T09:04:43.618Z,13.60
2023-04-28T09:07:37.758Z,14.27
2023-04-28T09:10:28.573Z,14.05
2023-04-28T09:13:32.756Z,14.70
2023-04-28T09:16:26.703Z,14.23
2023-04-28T09:19:14.523Z,13.60
2023-04-28T09:22:24.507Z,14.02
2023-04-28T09:25:19.768Z,13.57
2023-04-28T09:28:22.911Z,14.63
2023-04-28T09:31:34.844Z,12.00
2023-04-28T09:34:22.325Z,12.13
2023-04-28T09:37:23.836Z,11.75
2023-04-28T09:40:18.867Z,12.32
2023-04-28T09:43:29.388Z,13.30
2023-04-28T09:46:35.861Z,13.50
2023-04-28T09:49:23.390Z,12.43
2023-04-28T09:52:20.818Z,10.82
2023-04-28T09:55:18.852Z,14.90
2023-04-28T09:58:07.481Z,12.40
2023-04-28T10:01:02.831Z,13.45
2023-04-28T10:03:57.937Z,13.68
2023-04-28T10:06:45.675Z,12.20
2023-04-28T10:09:39.859Z,13.95
2023-04-28T10:12:27.859Z,15.05
2023-04-28T10:15:21.853Z,15.20
2023-04-28T10:18:15.900Z,13.82
2023-04-28T10:21:05.435Z,18.25
2023-04-28T10:24:01.882Z,18.98
2023-04-28T10:27:09.866Z,21.52
2023-04-28T10:30:27.951Z,24.10
2023-04-28T10:33:22.898Z,22.80
2023-04-28T10:36:19.399Z,24.00
2023-04-28T10:39:21.867Z,20.50
2023-04-28T10:43:00.929Z,20.75
2023-04-28T10:45:56.385Z,24.60
2023-04-28T10:48:53.901Z,23.05
2023-04-28T10:51:41.209Z,20.15
2023-04-28T10:54:36.899Z,17.08
2023-04-28T10:57:30.933Z,17.20
2023-04-28T11:00:29.055Z,16.38
2023-04-28T11:03:45.089Z,16.63
2023-04-28T11:06:35.412Z,14.27
2023-04-28T11:09:48.938Z,15.10
2023-04-28T11:12:36.252Z,13.55
2023-04-28T11:15:30.188Z,13.82
2023-04-28T11:18:28.892Z,10.23
2023-04-28T11:21:22.938Z,6.95
2023-04-28T11:24:17.918Z,8.30
2023-04-28T11:27:05.421Z,6.07
2023-04-28T11:29:58.989Z,4.03
2023-04-28T11:32:57.024Z,3.90
2023-04-28T11:35:50.946Z,4.72
2023-04-28T11:38:52.016Z,3.85
2023-04-28T11:41:41.862Z,2.72
2023-04-28T11:44:38.014Z,2.67
2023-04-28T11:47:41.027Z,2.35
2023-04-28T11:50:44.972Z,3.60
2023-04-28T11:53:52.006Z,3.83
2023-04-28T11:56:47.018Z,3.33
2023-04-28T11:59:35.714Z,4.45
2023-04-28T12:02:36.127Z,3.90
2023-04-28T12:05:30.020Z,5.40
2023-04-28T12:08:30.944Z,5.07
2023-04-28T12:11:25.834Z,6.07
2023-04-28T12:14:13.146Z,6.00
2023-04-28T12:17:07.028Z,4.78
2023-04-28T12:19:55.712Z,5.75
2023-04-28T12:22:57.067Z,5.80
2023-04-28T12:25:48.357Z,6.07
2023-04-28T12:28:49.126Z,4.70
2023-04-28T12:31:53.061Z,4.30
2023-04-28T12:34:49.053Z,5.93
2023-04-28T12:37:38.384Z,5.18
2023-04-28T12:40:32.085Z,4.63
2023-04-28T12:43:26.057Z,4.13
2023-04-28T12:46:21.073Z,3.50
2023-04-28T12:49:08.280Z,4.43
2023-04-28T12:52:09.084Z,4.03
2023-04-28T12:55:03.049Z,3.33
2023-04-28T12:57:50.177Z,3.10
2023-04-28T13:00:44.128Z,2.67
2023-04-28T13:03:31.453Z,3.55
2023-04-28T13:06:25.061Z,3.13
2023-04-28T13:09:12.852Z,3.63
2023-04-28T13:12:06.151Z,3.72
2023-04-28T13:14:53.599Z,3.05
2023-04-28T13:17:47.094Z,2.85
2023-04-28T13:20:34.258Z,3.45
2023-04-28T13:23:28.189Z,3.15
2023-04-28T13:26:15.301Z,2.60
2023-04-28T13:29:10.188Z,2.53
2023-04-28T13:31:57.355Z,3.95
2023-04-28T13:34:51.278Z,3.22
2023-04-28T13:37:49.116Z,4.80
2023-04-28T13:40:36.344Z,4.75
2023-04-28T13:43:30.167Z,6.75
2023-04-28T13:46:23.973Z,5.97
2023-04-28T13:49:18.157Z,7.47
2023-04-28T13:52:12.215Z,8.57
2023-04-28T13:54:59.276Z,11.80
2023-04-28T13:57:53.276Z,10.10
2023-04-28T14:00:40.484Z,14.40
2023-04-28T14:03:34.237Z,12.80
2023-04-28T14:06:28.213Z,13.25
2023-04-28T14:09:22.236Z,12.30
2023-04-28T14:12:17.186Z,13.05
2023-04-28T14:15:07.983Z,14.73
2023-04-28T14:18:01.223Z,11.52
2023-04-28T14:20:55.365Z,13.80
2023-04-28T14:23:42.649Z,13.80
2023-04-28T14:26:36.201Z,13.65
2023-04-28T14:29:23.314Z,12.20
2023-04-28T14:32:17.279Z,14.18
2023-04-28T14:35:06.124Z,18.85
2023-04-28T14:38:01.261Z,16.15
2023-04-28T14:40:55.250Z,20.17
2023-04-28T14:43:51.229Z,18.83
2023-04-28T14:46:45.304Z,18.17
2023-04-28T14:49:33.043Z,19.90
2023-04-28T14:52:30.274Z,16.67
2023-04-28T14:55:24.517Z,14.85
2023-04-28T14:58:12.252Z,18.63
2023-04-28T15:01:06.262Z,14.98
2023-04-28T15:03:53.460Z,17.08
2023-04-28T15:06:47.261Z,16.92
2023-04-28T15:09:41.305Z,16.83
2023-04-28T15:12:38.280Z,19.05
2023-04-28T15:15:25.850Z,14.48
2023-04-28T15:18:19.254Z,17.20
2023-04-28T15:21:13.316Z,15.68
2023-04-28T15:24:00.506Z,13.98
2023-04-28T15:26:54.279Z,13.38
2023-04-28T15:29:48.405Z,18.33
2023-04-28T15:32:42.326Z,22.55
2023-04-28T15:35:29.588Z,40.20
2023-04-28T15:38:23.335Z,27.17
2023-04-28T15:41:11.680Z,24.70
2023-04-28T15:44:07.336Z,23.08
2023-04-28T15:46:55.195Z,27.13
2023-04-28T15:49:48.350Z,22.58
2023-04-28T15:52:37.738Z,20.73
2023-04-28T15:55:31.335Z,24.02
2023-04-28T15:58:18.447Z,23.63
2023-04-28T16:01:12.351Z,22.70
2023-04-28T16:04:06.631Z,23.30
2023-04-28T16:06:55.388Z,21.60
2023-04-28T16:09:49.379Z,19.77
2023-04-28T16:12:43.411Z,25.40
2023-04-28T16:15:30.649Z,21.42
2023-04-28T16:18:24.400Z,23.35
2023-04-28T16:21:12.189Z,23.38
2023-04-28T16:24:06.466Z,24.25
2023-04-28T16:26:53.894Z,27.80
2023-04-28T16:29:47.416Z,24.83
2023-04-28T16:32:36.675Z,21.73
2023-04-28T16:35:31.416Z,20.02
2023-04-28T16:38:25.429Z,19.05
2023-04-28T16:41:19.453Z,18.77
2023-04-28T16:44:06.655Z,19.23
2023-04-28T16:47:00.458Z,15.43
2023-04-28T16:49:54.494Z,14.25
2023-04-28T16:52:48.401Z,11.60
2023-04-28T16:55:45.473Z,10.40
2023-04-28T16:58:32.600Z,10.38
2023-04-28T17:01:26.509Z,11.90
2023-04-28T17:04:21.728Z,10.40
2023-04-28T17:07:15.428Z,11.15
2023-04-28T17:10:02.638Z,8.75
2023-04-28T17:12:56.496Z,8.98
2023-04-28T17:15:43.592Z,6.97
2023-04-28T17:18:37.497Z,7.35
2023-04-28T17:21:35.453Z,5.32
2023-04-28T17:24:23.105Z,4.72
2023-04-28T17:27:17.501Z,5.50
2023-04-28T17:30:12.491Z,4.53
2023-04-28T17:32:59.656Z,5.85
2023-04-28T17:35:53.490Z,5.05
2023-04-28T17:38:40.632Z,7.15
2023-04-28T17:41:34.519Z,8.07
2023-04-28T17:44:28.605Z,9.00
2023-04-28T17:47:22.551Z,12.35
2023-04-28T17:50:10.116Z,12.25
2023-04-28T17:53:04.545Z,13.13
2023-04-28T17:55:52.184Z,12.15
2023-04-28T17:58:45.581Z,13.55
2023-04-28T18:01:36.089Z,18.33
2023-04-28T18:04:29.710Z,20.35
2023-04-28T18:07:16.864Z,21.35
2023-04-28T18:10:10.548Z,25.88
2023-04-28T18:12:59.175Z,31.70
2023-04-28T18:15:52.661Z,31.23
2023-04-28T18:18:39.777Z,31.25
2023-04-28T18:21:34.553Z,31.25
2023-04-28T18:24:21.786Z,32.67
2023-04-28T18:27:15.547Z,34.80
2023-04-28T18:30:02.763Z,33.28
2023-04-28T18:32:57.621Z,37.42
2023-04-28T18:35:46.513Z,34.58
2023-04-28T18:38:43.601Z,39.70
2023-04-28T18:41:37.630Z,38.55
2023-04-28T18:44:31.606Z,42.88
2023-04-28T18:47:26.657Z,43.58
2023-04-28T18:50:14.317Z,49.00
2023-04-28T18:53:16.626Z,51.25
2023-04-28T18:56:03.985Z,50.22
2023-04-28T18:58:57.686Z,46.17
2023-04-28T19:01:44.850Z,45.30
2023-04-28T19:04:38.787Z,45.38
2023-04-28T19:07:40.660Z,52.90
2023-04-28T19:10:40.685Z,49.55
2023-04-28T19:13:34.775Z,47.83
2023-04-28T19:16:28.730Z,49.92
2023-04-28T19:19:22.699Z,53.75
2023-04-28T19:22:31.549Z,46.33
2023-04-28T19:25:25.822Z,45.33
2023-04-28T19:28:19.859Z,49.92
2023-04-28T19:31:14.744Z,47.03
2023-04-28T19:34:01.868Z,47.58
2023-04-28T19:36:55.667Z,50.97
2023-04-28T19:39:43.456Z,51.83
2023-04-28T19:42:38.708Z,54.08
2023-04-28T19:45:26.132Z,50.60
2023-04-28T19:48:26.714Z,53.95
2023-04-28T19:51:16.985Z,49.75
2023-04-28T19:54:10.728Z,53.05
2023-04-28T19:57:04.696Z,55.63
2023-04-28T19:59:58.772Z,57.53
2023-04-28T20:02:46.027Z,63.10
2023-04-28T20:05:39.704Z,62.30
2023-04-28T20:08:33.755Z,60.08
2023-04-28T20:11:27.766Z,61.33
2023-04-28T20:14:14.816Z,58.67
2023-04-28T20:17:12.756Z,64.57
2023-04-28T20:20:06.775Z,58.95
2023-04-28T20:23:00.737Z,66.20
2023-04-28T20:25:47.840Z,66.60
2023-04-28T20:28:41.798Z,69.10
2023-04-28T20:31:28.954Z,65.80
2023-04-28T20:34:23.840Z,61.80
2023-04-28T20:37:17.823Z,64.15
2023-04-28T20:40:05.528Z,67.15
2023-04-28T20:42:58.879Z,68.18
2023-04-28T20:45:46.238Z,66.35
2023-04-28T20:48:40.821Z,63.33
2023-04-28T20:51:30.219Z,67.53
2023-04-28T20:54:23.850Z,68.70
2023-04-28T20:57:11.427Z,70.18
2023-04-28T21:00:04.815Z,63.50
2023-04-28T21:02:58.996Z,63.35
2023-04-28T21:05:46.524Z,61.25
2023-04-28T21:08:39.809Z,63.22
2023-04-28T21:11:27.015Z,67.93
2023-04-28T21:14:21.919Z,67.05
2023-04-28T21:17:09.177Z,62.03
2023-04-28T21:20:03.859Z,59.55
2023-04-28T21:22:57.906Z,53.92
2023-04-28T21:25:44.948Z,57.20
2023-04-28T21:28:40.843Z,66.05
2023-04-28T21:31:34.910Z,55.53
2023-04-28T21:34:28.867Z,59.58
2023-04-28T21:37:22.964Z,55.95
2023-04-28T21:40:10.554Z,54.00
2023-04-28T21:43:03.878Z,53.45
2023-04-28T21:45:52.179Z,53.30
2023-04-28T21:48:45.899Z,50.45
2023-04-28T21:51:33.141Z,45.92
2023-04-28T21:54:26.964Z,47.22
2023-04-28T21:57:15.741Z,46.50
2023-04-28T22:00:09.896Z,41.03
2023-04-28T22:02:58.323Z,45.30
2023-04-28T22:05:51.944Z,39.45
2023-04-28T22:08:45.929Z,35.17
2023-04-28T22:11:33.279Z,36.63
2023-04-28T22:14:40.472Z,36.65
2023-04-28T22:17:28.503Z,33.88
2023-04-28T22:20:23.017Z,33.85
2023-04-28T22:23:10.400Z,26.92
2023-04-28T22:26:05.967Z,26.92
2023-04-28T22:28:53.111Z,25.45
2023-04-28T22:31:46.983Z,23.42
2023-04-28T22:34:40.922Z,24.52
2023-04-28T22:37:34.984Z,22.50
2023-04-28T22:40:29.009Z,18.95
2023-04-28T22:43:16.751Z,24.45
2023-04-28T22:46:10.018Z,26.73
2023-04-28T22:48:57.445Z,25.83
2023-04-28T22:51:50.983Z,32.10
2023-04-28T22:54:38.703Z,27.85
2023-04-28T22:57:32.119Z,30.10
2023-04-28T23:00:19.365Z,31.08
2023-04-28T23:03:13.096Z,26.58
2023-04-28T23:06:00.326Z,24.70
2023-04-28T23:08:54.173Z,26.58
2023-04-28T23:11:48.012Z,26.60
2023-04-28T23:14:42.027Z,31.17
2023-04-28T23:17:36.079Z,32.17
2023-04-28T23:20:23.228Z,31.55
2023-04-28T23:23:17.083Z,29.23
2023-04-28T23:26:05.403Z,33.67
2023-04-28T23:29:00.104Z,30.92
2023-04-28T23:31:59.081Z,30.90
2023-04-28T23:34:53.042Z,34.80
2023-04-28T23:37:40.085Z,31.73
2023-04-28T23:40:34.123Z,39.53
2023-04-28T23:43:21.491Z,31.88
2023-04-28T23:46:15.110Z,34.28
2023-04-28T23:49:02.265Z,35.50
2023-04-28T23:51:56.108Z,38.35
2023-04-28T23:54:50.089Z,41.05
2023-04-28T23:57:38.488Z,45.10
